LOWI

Innsbruck Airport

Innsbruck, Austria
METAR LOWI 171020Z 28014KT 250V310 2500 SHSN FEW010 SCT020 BKN055 02/M03 Q1003 R08/29//95 NOSIG
Observed Flight Rules
Jan-17 @ 10:20 UTC (29 minutes ago) Instrument Flight Rules
Wind Visibility Clouds Conditions
280° at 14 knots 2,494 meters
  • Few at 1,000' AGL
  • Scattered at 2,000' AGL
  • Broken at 5,500' AGL
  • Snow
Temperatures Readings
Current 2°C / 36°F
Dewpoint -3°C / 27°F
Humidity 70%
Altimeter 29.62" Hg
Pressure 1003 hPa
Elevation 581
METAR LOWI 171020Z 28014KT 250V310 2500 SHSN FEW010 SCT020 BKN055 02/M03 Q1003 R08/29//95 NOSIG
Observed Flight Rules
Jan-17 @ 10:20 UTC
(29 minutes ago)
IFR
Wind Visibility
280° at 14 knots 2,494 meters
Clouds
  • Few at 1,000' AGL
  • Scattered at 2,000' AGL
  • Broken at 5,500' AGL
Conditions
  • Snow
Temperature Dewpoint
2°C / 36°F -3°C / 27°F
Humidity Altimeter Pressure
70% 29.62" Hg 1003 hPa